Avenel, New Jersey
Current Conditions -  °F | °C
As of 10:15 AM on Thursday 30 Oct 2014 (Local Time) from KLDJ Reporting Station
Clear Clear  
Wind Chill: 56°   Ceiling: Unl
Heat Index: 56°   Visibility: 10mi
Dew Point: 46°   Wind: 10mph
Humidity: 68%   Direction: 360°N
Pressure: 30.02"   Gusts: NA
Location:  40.58°N, 74.28°W
Report Text: KLDJ 301415Z AUTO 36009KT 10SM CLR 13/08 A3002 RMK AO2 T01340077
Loading
Personal Weather Stations






























Interactive Weather Map
Tropical Storm Tracking
New forecast layout! Learn more

10-Day Weather Forecast

Advertisements
Track Severe Weather on mobile